Paphos, Cyprus
Current Conditions -  °F | °C
As of 3:00 PM on Thursday 30 Oct 2014 (Local Time) from LCPH Reporting Station
Few Clouds Few Clouds  
Wind Chill: 75°   Ceiling: Unl
Heat Index: 75°   Visibility: 6mi
Dew Point: 63°   Wind: 14mph
Humidity: 65%   Direction: 300°WNW
Pressure: 29.88"   Gusts: NA
Location:  34.77°N, 32.4°E
Report Text: LCPH 301200Z 30012KT 9999 FEW022 FEW030CB 24/17 Q1012
Loading
Personal Weather Stations






























Interactive Weather Map
Tropical Storm Tracking
New forecast layout! Learn more

10-Day Weather Forecast

Advertisements
Track Severe Weather on mobile